createdAt,value
2017-12-01T00:00:12.162Z,56.20
2017-12-01T00:01:12.227Z,54.30
2017-12-01T00:02:12.187Z,58.00
2017-12-01T00:03:12.237Z,55.90
2017-12-01T00:04:12.225Z,58.20
2017-12-01T00:05:12.511Z,58.30
2017-12-01T00:06:12.256Z,60.30
2017-12-01T00:07:12.327Z,55.80
2017-12-01T00:08:12.286Z,57.20
2017-12-01T00:09:12.300Z,58.40
2017-12-01T00:10:12.317Z,56.40
2017-12-01T00:11:12.331Z,58.90
2017-12-01T00:12:12.449Z,59.70
2017-12-01T00:13:12.362Z,60.00
2017-12-01T00:14:12.453Z,60.30
2017-12-01T00:15:12.397Z,58.30
2017-12-01T00:16:12.576Z,58.70
2017-12-01T00:17:12.425Z,58.40
2017-12-01T00:18:12.636Z,56.80
2017-12-01T00:19:12.455Z,57.90
2017-12-01T00:20:12.565Z,57.20
2017-12-01T00:21:12.487Z,60.10
2017-12-01T00:22:12.502Z,59.70
2017-12-01T00:23:12.595Z,58.60
2017-12-01T00:24:12.544Z,61.00
2017-12-01T00:25:12.681Z,59.50
2017-12-01T00:26:12.575Z,59.90
2017-12-01T00:27:12.624Z,61.70
2017-12-01T00:28:12.600Z,61.40
2017-12-01T00:29:12.733Z,58.40
2017-12-01T00:30:12.628Z,59.40
2017-12-01T00:31:12.705Z,59.80
2017-12-01T00:32:12.661Z,58.90
2017-12-01T00:33:12.673Z,58.20
2017-12-01T00:34:12.745Z,61.10
2017-12-01T00:35:12.844Z,58.90
2017-12-01T00:36:12.716Z,60.50
2017-12-01T00:37:12.736Z,62.10
2017-12-01T00:38:12.916Z,62.70
2017-12-01T00:39:12.765Z,60.70
2017-12-01T00:40:12.812Z,64.00
2017-12-01T00:41:12.796Z,59.70
2017-12-01T00:42:12.849Z,59.80
2017-12-01T00:43:12.828Z,59.20
2017-12-01T00:44:12.937Z,62.30
2017-12-01T00:45:12.866Z,60.50
2017-12-01T00:46:12.948Z,59.20
2017-12-01T00:47:12.890Z,59.20
2017-12-01T00:48:12.905Z,61.10
2017-12-01T00:49:12.920Z,61.90
2017-12-01T00:50:12.936Z,60.50
2017-12-01T00:51:13.011Z,61.40
2017-12-01T00:52:12.968Z,62.50
2017-12-01T00:53:13.092Z,63.60
2017-12-01T00:54:12.995Z,60.50
2017-12-01T00:55:13.168Z,60.10
2017-12-01T00:56:13.029Z,61.70
2017-12-01T00:57:13.166Z,59.70
2017-12-01T00:58:13.062Z,57.30
2017-12-01T00:59:13.201Z,62.00
2017-12-01T01:00:13.088Z,58.40
2017-12-01T01:01:13.197Z,59.50
2017-12-01T01:02:13.464Z,58.50
2017-12-01T01:03:13.136Z,56.30
2017-12-01T01:04:13.252Z,58.10
2017-12-01T01:05:13.180Z,57.70
2017-12-01T01:06:13.321Z,60.60
2017-12-01T01:07:13.203Z,54.70
2017-12-01T01:08:13.303Z,59.50
2017-12-01T01:09:13.230Z,59.40
2017-12-01T01:10:13.322Z,63.70
2017-12-01T01:11:13.258Z,71.40
2017-12-01T01:12:13.277Z,74.20
2017-12-01T01:13:13.372Z,73.60
2017-12-01T01:14:13.309Z,70.10
2017-12-01T01:15:13.506Z,67.00
2017-12-01T01:16:13.340Z,66.30
2017-12-01T01:17:13.489Z,66.00
2017-12-01T01:18:13.371Z,64.60
2017-12-01T01:19:13.431Z,65.30
2017-12-01T01:20:13.402Z,61.90
2017-12-01T01:21:13.418Z,67.50
2017-12-01T01:22:13.435Z,65.70
2017-12-01T01:23:13.443Z,66.40
2017-12-01T01:24:13.562Z,63.40
2017-12-01T01:25:13.479Z,62.80
2017-12-01T01:26:13.565Z,63.40
2017-12-01T01:27:13.516Z,65.90
2017-12-01T01:28:13.623Z,65.80
2017-12-01T01:29:13.540Z,63.10
2017-12-01T01:30:13.616Z,64.90
2017-12-01T01:31:13.570Z,65.10
2017-12-01T01:32:13.659Z,66.40
2017-12-01T01:33:13.601Z,67.90
2017-12-01T01:34:13.706Z,64.10
2017-12-01T01:35:13.648Z,68.60
2017-12-01T01:36:13.683Z,67.50
2017-12-01T01:37:13.675Z,65.40
2017-12-01T01:38:13.772Z,68.80
2017-12-01T01:39:13.695Z,63.90
2017-12-01T01:40:13.761Z,66.50
2017-12-01T01:41:13.726Z,67.30
2017-12-01T01:42:13.769Z,65.60
2017-12-01T01:43:13.756Z,63.60
2017-12-01T01:44:13.773Z,61.40
2017-12-01T01:45:13.848Z,66.20
2017-12-01T01:46:13.804Z,75.30
2017-12-01T01:47:13.863Z,75.90
2017-12-01T01:48:13.834Z,77.20
2017-12-01T01:49:13.918Z,74.30
2017-12-01T01:50:13.863Z,74.30
2017-12-01T01:51:13.979Z,76.00
2017-12-01T01:52:13.901Z,69.90
2017-12-01T01:53:14.010Z,69.50
2017-12-01T01:54:13.926Z,67.20
2017-12-01T01:55:13.939Z,73.60
2017-12-01T01:56:13.956Z,67.40
2017-12-01T01:57:13.970Z,67.80
2017-12-01T01:58:14.226Z,70.90
2017-12-01T01:59:14.006Z,64.00
2017-12-01T02:00:14.105Z,67.50
2017-12-01T02:01:14.033Z,65.30
2017-12-01T02:02:14.156Z,64.40
2017-12-01T02:03:14.064Z,63.40
2017-12-01T02:04:14.187Z,64.40
2017-12-01T02:05:14.099Z,67.70
2017-12-01T02:06:14.108Z,63.90
2017-12-01T02:07:14.227Z,63.50
2017-12-01T02:08:14.171Z,66.70
2017-12-01T02:09:14.286Z,66.10
2017-12-01T02:10:14.174Z,65.90
2017-12-01T02:11:14.247Z,64.60
2017-12-01T02:12:14.566Z,66.70
2017-12-01T02:13:14.220Z,66.70
2017-12-01T02:14:14.305Z,67.30
2017-12-01T02:15:14.253Z,65.90
2017-12-01T02:16:14.341Z,64.00
2017-12-01T02:17:14.292Z,65.90
2017-12-01T02:18:14.363Z,63.00
2017-12-01T02:19:14.313Z,63.20
2017-12-01T02:20:14.469Z,65.00
2017-12-01T02:21:14.343Z,61.90
2017-12-01T02:22:14.489Z,64.30
2017-12-01T02:23:14.387Z,63.90
2017-12-01T02:24:14.387Z,63.70
2017-12-01T02:25:14.430Z,63.90
2017-12-01T02:26:14.421Z,64.00
2017-12-01T02:27:14.498Z,61.20
2017-12-01T02:28:14.456Z,62.80
2017-12-01T02:29:14.543Z,63.00
2017-12-01T02:30:14.482Z,61.70
2017-12-01T02:31:14.553Z,60.60
2017-12-01T02:32:14.511Z,61.40
2017-12-01T02:33:14.656Z,61.60
2017-12-01T02:34:14.544Z,61.90
2017-12-01T02:35:14.563Z,61.50
2017-12-01T02:36:14.575Z,60.90
2017-12-01T02:37:14.591Z,61.70
2017-12-01T02:38:14.644Z,61.40
2017-12-01T02:39:14.622Z,60.90
2017-12-01T02:40:14.823Z,61.60
2017-12-01T02:41:14.651Z,57.20
2017-12-01T02:42:14.800Z,60.00
2017-12-01T02:43:14.683Z,59.10
2017-12-01T02:44:14.836Z,59.60
2017-12-01T02:45:14.715Z,60.60
2017-12-01T02:46:14.834Z,59.70
2017-12-01T02:47:14.746Z,60.00
2017-12-01T02:48:14.761Z,63.90
2017-12-01T02:49:14.821Z,61.60
2017-12-01T02:50:14.793Z,64.80
2017-12-01T02:51:14.880Z,65.20
2017-12-01T02:52:14.823Z,61.30
2017-12-01T02:53:14.882Z,60.50
2017-12-01T02:54:14.852Z,60.80
2017-12-01T02:55:14.943Z,61.00
2017-12-01T02:56:14.884Z,61.20
2017-12-01T02:57:14.950Z,58.90
2017-12-01T02:58:14.915Z,61.90
2017-12-01T02:59:14.927Z,62.60
2017-12-01T03:00:14.975Z,59.90
2017-12-01T03:01:14.960Z,57.60
2017-12-01T03:02:15.046Z,59.20
2017-12-01T03:03:14.996Z,60.70
2017-12-01T03:04:15.121Z,60.80
2017-12-01T03:05:15.020Z,60.10
2017-12-01T03:06:15.117Z,58.10
2017-12-01T03:07:15.052Z,61.50
2017-12-01T03:08:15.174Z,62.90
2017-12-01T03:09:15.085Z,61.50
2017-12-01T03:10:15.250Z,64.40
2017-12-01T03:11:15.113Z,64.90
2017-12-01T03:12:15.131Z,63.60
2017-12-01T03:13:15.232Z,64.30
2017-12-01T03:14:15.171Z,64.30
2017-12-01T03:15:15.174Z,66.10
2017-12-01T03:16:15.603Z,74.00
2017-12-01T03:17:15.204Z,71.70
2017-12-01T03:18:15.286Z,63.00
2017-12-01T03:19:15.249Z,58.50
2017-12-01T03:20:15.323Z,52.80
2017-12-01T03:21:15.263Z,53.60
2017-12-01T03:22:15.366Z,60.40
2017-12-01T03:23:15.305Z,54.80
2017-12-01T03:24:15.363Z,62.00
2017-12-01T03:25:15.325Z,70.60
2017-12-01T03:26:15.419Z,68.70
2017-12-01T03:27:15.364Z,74.40
2017-12-01T03:28:15.368Z,83.30
2017-12-01T03:29:15.381Z,85.80
2017-12-01T03:30:15.399Z,93.50
2017-12-01T03:31:15.517Z,71.60
2017-12-01T03:32:15.431Z,83.60
2017-12-01T03:33:15.494Z,118.20
2017-12-01T03:34:15.458Z,113.10
2017-12-01T03:35:15.550Z,97.30
2017-12-01T03:36:15.488Z,108.60
2017-12-01T03:37:15.557Z,141.30
2017-12-01T03:38:15.515Z,113.80
2017-12-01T03:39:15.622Z,115.00
2017-12-01T03:40:15.551Z,100.30
2017-12-01T03:41:15.779Z,103.20
2017-12-01T03:42:15.575Z,119.10
2017-12-01T03:43:15.758Z,105.60
2017-12-01T03:44:15.626Z,107.30
2017-12-01T03:45:15.644Z,119.30
2017-12-01T03:46:15.645Z,139.00
2017-12-01T03:47:15.686Z,187.50
2017-12-01T03:48:15.710Z,157.50
2017-12-01T03:49:15.675Z,174.60
2017-12-01T03:50:15.692Z,143.90
2017-12-01T03:51:15.839Z,155.60
2017-12-01T03:52:15.717Z,151.50
2017-12-01T03:53:15.878Z,134.60
2017-12-01T03:54:15.754Z,128.30
2017-12-01T03:55:16.916Z,148.40
2017-12-01T03:56:15.775Z,137.10
2017-12-01T03:57:15.789Z,226.90
2017-12-01T03:58:15.878Z,132.30
2017-12-01T03:59:15.812Z,187.90
2017-12-01T04:00:15.864Z,145.40
2017-12-01T04:01:15.837Z,166.90
2017-12-01T04:02:15.959Z,166.90
2017-12-01T04:03:15.871Z,119.00
2017-12-01T04:04:15.977Z,148.10
2017-12-01T04:05:15.899Z,151.30
2017-12-01T04:06:15.963Z,153.60
2017-12-01T04:07:15.928Z,162.50
2017-12-01T04:08:15.942Z,111.70
2017-12-01T04:09:16.002Z,158.50
2017-12-01T04:10:15.975Z,135.50
2017-12-01T04:11:16.082Z,122.70
2017-12-01T04:12:15.996Z,120.30
2017-12-01T04:13:16.154Z,98.50
2017-12-01T04:14:16.024Z,121.20
2017-12-01T04:15:16.093Z,107.30
2017-12-01T04:16:16.057Z,119.00
2017-12-01T04:17:16.159Z,104.50
2017-12-01T04:18:16.265Z,113.70
2017-12-01T04:19:16.098Z,134.30
2017-12-01T04:20:16.209Z,109.50
2017-12-01T04:21:16.127Z,126.90
2017-12-01T04:22:16.181Z,111.80
2017-12-01T04:23:16.153Z,128.00
2017-12-01T04:24:16.320Z,101.40
2017-12-01T04:25:17.569Z,121.80
2017-12-01T04:26:16.196Z,131.70
2017-12-01T04:27:16.671Z,107.80
2017-12-01T04:28:16.222Z,95.70
2017-12-01T04:29:16.372Z,111.60
2017-12-01T04:30:16.246Z,115.50
2017-12-01T04:31:16.439Z,127.00
2017-12-01T04:32:16.281Z,123.60
2017-12-01T04:33:16.295Z,112.40
2017-12-01T04:34:16.320Z,120.40
2017-12-01T04:35:16.322Z,121.70
2017-12-01T04:36:16.478Z,114.20
2017-12-01T04:37:16.366Z,110.60
2017-12-01T04:38:16.468Z,122.10
2017-12-01T04:39:16.378Z,107.20
2017-12-01T04:40:16.430Z,107.60
2017-12-01T04:41:16.406Z,100.00
2017-12-01T04:42:16.980Z,93.30
2017-12-01T04:43:16.435Z,90.40
2017-12-01T04:44:16.774Z,92.70
2017-12-01T04:45:16.466Z,103.50
2017-12-01T04:46:16.478Z,94.30
2017-12-01T04:47:16.549Z,86.00
2017-12-01T04:48:16.502Z,85.80
2017-12-01T04:49:16.552Z,84.60
2017-12-01T04:50:16.534Z,89.60
2017-12-01T04:51:16.620Z,92.00
2017-12-01T04:52:16.562Z,87.10
2017-12-01T04:53:16.780Z,84.30
2017-12-01T04:54:16.605Z,105.10
2017-12-01T04:55:16.605Z,82.40
2017-12-01T04:56:16.679Z,92.40
2017-12-01T04:57:16.635Z,88.80
2017-12-01T04:58:16.703Z,80.20
2017-12-01T04:59:16.669Z,81.10
2017-12-01T05:00:16.676Z,88.90
2017-12-01T05:01:16.692Z,88.50
2017-12-01T05:02:16.710Z,82.30
2017-12-01T05:03:16.797Z,86.60
2017-12-01T05:04:16.733Z,90.20
2017-12-01T05:05:16.814Z,77.40
2017-12-01T05:06:16.763Z,77.10
2017-12-01T05:07:16.890Z,84.60
2017-12-01T05:08:16.789Z,89.70
2017-12-01T05:09:16.897Z,85.60
2017-12-01T05:10:19.939Z,73.40
2017-12-01T05:11:16.907Z,79.50
2017-12-01T05:12:16.849Z,83.60
2017-12-01T05:13:16.934Z,93.60
2017-12-01T05:14:16.877Z,75.20
2017-12-01T05:15:16.999Z,72.50
2017-12-01T05:16:16.906Z,77.50
2017-12-01T05:17:16.950Z,78.90
2017-12-01T05:18:16.972Z,73.70
2017-12-01T05:19:16.947Z,74.40
2017-12-01T05:20:17.047Z,79.70
2017-12-01T05:21:16.977Z,74.70
2017-12-01T05:22:17.042Z,75.40
2017-12-01T05:23:17.005Z,78.30
2017-12-01T05:24:17.091Z,77.70
2017-12-01T05:25:17.033Z,67.90
2017-12-01T05:26:17.166Z,71.60
2017-12-01T05:27:17.068Z,77.40
2017-12-01T05:28:17.254Z,83.00
2017-12-01T05:29:17.101Z,72.30
2017-12-01T05:30:17.112Z,73.20
2017-12-01T05:31:17.198Z,73.00
2017-12-01T05:32:17.134Z,79.40
2017-12-01T05:33:17.199Z,79.30
2017-12-01T05:34:17.256Z,69.70
2017-12-01T05:35:17.262Z,81.00
2017-12-01T05:36:17.265Z,72.60
2017-12-01T05:37:17.206Z,78.80
2017-12-01T05:38:17.334Z,80.50
2017-12-01T05:39:17.237Z,69.70
2017-12-01T05:40:17.250Z,72.60
2017-12-01T05:41:17.327Z,74.00
2017-12-01T05:42:17.280Z,74.30
2017-12-01T05:43:17.390Z,78.40
2017-12-01T05:44:17.308Z,75.00
2017-12-01T05:45:17.426Z,69.30
2017-12-01T05:46:17.339Z,76.70
2017-12-01T05:47:17.441Z,74.70
2017-12-01T05:48:17.366Z,76.30
2017-12-01T05:49:17.464Z,71.70
2017-12-01T05:50:17.394Z,73.70
2017-12-01T05:51:17.493Z,76.10
2017-12-01T05:52:17.427Z,74.40
2017-12-01T05:53:17.440Z,73.40
2017-12-01T05:54:17.503Z,73.40
2017-12-01T05:55:17.470Z,72.40
2017-12-01T05:56:17.569Z,72.40
2017-12-01T05:57:17.502Z,72.30
2017-12-01T05:58:17.589Z,72.90
2017-12-01T05:59:17.526Z,73.40
2017-12-01T06:00:17.728Z,76.20
2017-12-01T06:01:17.549Z,82.10
2017-12-01T06:02:17.617Z,80.60
2017-12-01T06:03:17.582Z,82.10
2017-12-01T06:04:17.609Z,82.10
2017-12-01T06:05:17.613Z,80.20
2017-12-01T06:06:17.628Z,83.70
2017-12-01T06:07:17.715Z,81.60
2017-12-01T06:08:17.662Z,89.00
2017-12-01T06:09:17.825Z,86.40
2017-12-01T06:10:17.686Z,90.90
2017-12-01T06:11:17.754Z,94.50
2017-12-01T06:12:17.711Z,84.10
2017-12-01T06:13:17.797Z,84.40
2017-12-01T06:14:17.742Z,86.50
2017-12-01T06:15:17.757Z,86.90
2017-12-01T06:16:17.768Z,79.50
2017-12-01T06:17:17.888Z,90.00
2017-12-01T06:18:17.802Z,86.10
2017-12-01T06:19:17.915Z,88.60
2017-12-01T06:20:17.828Z,88.30
2017-12-01T06:21:17.961Z,96.50
2017-12-01T06:22:17.858Z,88.90
2017-12-01T06:23:17.870Z,91.70
2017-12-01T06:24:17.886Z,87.60
2017-12-01T06:25:17.899Z,90.00
2017-12-01T06:26:17.915Z,91.60
2017-12-01T06:27:17.929Z,105.40
2017-12-01T06:28:17.942Z,94.40
2017-12-01T06:29:17.963Z,96.80
2017-12-01T06:30:17.973Z,92.10
2017-12-01T06:31:17.989Z,92.70
2017-12-01T06:32:18.154Z,92.50
2017-12-01T06:33:18.022Z,95.90
2017-12-01T06:34:18.354Z,88.50
2017-12-01T06:35:18.045Z,94.70
2017-12-01T06:36:18.200Z,93.60
2017-12-01T06:37:18.073Z,97.10
2017-12-01T06:38:18.239Z,96.30
2017-12-01T06:39:18.102Z,100.00
2017-12-01T06:40:18.190Z,92.80
2017-12-01T06:41:18.130Z,95.00
2017-12-01T06:42:18.283Z,96.40
2017-12-01T06:43:18.160Z,109.90
2017-12-01T06:44:18.211Z,94.60
2017-12-01T06:45:18.188Z,90.10
2017-12-01T06:46:18.204Z,96.40
2017-12-01T06:47:18.250Z,103.70
2017-12-01T06:48:18.233Z,101.80
2017-12-01T06:49:18.402Z,100.90
2017-12-01T06:50:18.260Z,96.60
2017-12-01T06:51:18.538Z,101.40
2017-12-01T06:52:18.292Z,102.80
2017-12-01T06:53:18.547Z,93.10
2017-12-01T06:54:18.318Z,103.90
2017-12-01T06:55:18.390Z,98.90
2017-12-01T06:56:18.347Z,98.90
2017-12-01T06:57:18.361Z,103.30
2017-12-01T06:58:18.381Z,96.70
2017-12-01T06:59:18.390Z,107.00
2017-12-01T07:00:18.708Z,97.40
2017-12-01T07:01:18.419Z,99.40
2017-12-01T07:02:18.535Z,103.80
2017-12-01T07:03:18.445Z,100.30
2017-12-01T07:04:18.702Z,109.40
2017-12-01T07:05:18.475Z,121.50
2017-12-01T07:06:18.612Z,124.30
2017-12-01T07:07:18.510Z,108.40
2017-12-01T07:08:18.592Z,107.90
2017-12-01T07:09:18.539Z,106.10
2017-12-01T07:10:18.550Z,107.40
2017-12-01T07:11:18.568Z,107.80
2017-12-01T07:12:18.715Z,111.10
2017-12-01T07:13:18.655Z,108.20
2017-12-01T07:14:18.610Z,116.20
2017-12-01T07:15:18.779Z,107.10
2017-12-01T07:16:18.637Z,108.70
2017-12-01T07:17:18.757Z,105.40
2017-12-01T07:18:18.663Z,110.90
2017-12-01T07:19:18.675Z,119.20
2017-12-01T07:20:18.801Z,116.90
2017-12-01T07:21:18.701Z,114.90
2017-12-01T07:22:18.803Z,115.10
2017-12-01T07:23:18.956Z,115.30
2017-12-01T07:24:18.754Z,110.10
2017-12-01T07:25:18.902Z,99.20
2017-12-01T07:26:18.791Z,102.10
2017-12-01T07:27:18.879Z,102.70
2017-12-01T07:28:18.973Z,104.60
2017-12-01T07:29:18.827Z,105.60
2017-12-01T07:30:19.081Z,100.30
2017-12-01T07:31:18.848Z,108.50
2017-12-01T07:32:18.867Z,107.20
2017-12-01T07:33:18.884Z,101.50
2017-12-01T07:34:18.892Z,99.20
2017-12-01T07:35:18.905Z,104.50
2017-12-01T07:36:18.923Z,112.40
2017-12-01T07:37:18.934Z,111.20
2017-12-01T07:38:18.988Z,120.60
2017-12-01T07:39:18.967Z,107.20
2017-12-01T07:40:19.077Z,111.60
2017-12-01T07:41:19.058Z,106.50
2017-12-01T07:42:19.000Z,112.40
2017-12-01T07:43:19.019Z,110.00
2017-12-01T07:44:19.161Z,109.80
2017-12-01T07:45:19.061Z,109.80
2017-12-01T07:46:19.132Z,104.00
2017-12-01T07:47:19.075Z,104.10
2017-12-01T07:48:19.356Z,107.00
2017-12-01T07:49:19.107Z,104.50
2017-12-01T07:50:19.237Z,101.50
2017-12-01T07:51:19.414Z,106.50
2017-12-01T07:52:19.160Z,102.40
2017-12-01T07:53:19.253Z,99.40
2017-12-01T07:54:19.266Z,103.60
2017-12-01T07:55:19.201Z,95.50
2017-12-01T07:56:19.224Z,102.70
2017-12-01T07:57:19.219Z,100.10
2017-12-01T07:58:19.243Z,93.70
2017-12-01T07:59:19.265Z,98.20
2017-12-01T08:00:19.271Z,97.30
2017-12-01T08:01:19.338Z,101.00
2017-12-01T08:02:19.291Z,101.20
2017-12-01T08:03:19.385Z,94.20
2017-12-01T08:04:19.326Z,93.90
2017-12-01T08:05:19.430Z,101.10
2017-12-01T08:06:19.355Z,94.20
2017-12-01T08:07:20.893Z,88.40
2017-12-01T08:08:20.023Z,97.30
2017-12-01T08:09:19.391Z,98.10
2017-12-01T08:10:19.411Z,88.90
2017-12-01T08:11:19.423Z,93.70
2017-12-01T08:12:19.518Z,99.80
2017-12-01T08:13:19.454Z,100.60
2017-12-01T08:14:19.560Z,92.10
2017-12-01T08:15:19.485Z,90.90
2017-12-01T08:16:19.711Z,95.30
2017-12-01T08:17:19.506Z,95.00
2017-12-01T08:18:19.565Z,92.20
2017-12-01T08:19:19.593Z,90.10
2017-12-01T08:20:19.551Z,86.70
2017-12-01T08:21:19.703Z,86.70
2017-12-01T08:22:19.579Z,87.20
2017-12-01T08:23:19.978Z,86.60
2017-12-01T08:24:19.608Z,90.80
2017-12-01T08:25:19.629Z,86.90
2017-12-01T08:26:19.643Z,86.40
2017-12-01T08:27:19.653Z,84.90
2017-12-01T08:28:19.661Z,87.90
2017-12-01T08:29:19.684Z,85.50
2017-12-01T08:30:20.371Z,85.10
2017-12-01T08:31:19.716Z,87.00
2017-12-01T08:32:19.817Z,81.10
2017-12-01T08:33:19.761Z,87.70
2017-12-01T08:34:19.762Z,87.40
2017-12-01T08:35:19.890Z,88.10
2017-12-01T08:36:19.790Z,88.80
2017-12-01T08:37:19.928Z,84.90
2017-12-01T08:38:19.820Z,81.50
2017-12-01T08:39:19.908Z,85.50
2017-12-01T08:40:19.841Z,85.80
2017-12-01T08:41:19.865Z,87.90
2017-12-01T08:42:19.879Z,87.00
2017-12-01T08:43:19.975Z,88.00
2017-12-01T08:44:19.900Z,86.30
2017-12-01T08:45:19.992Z,83.70
2017-12-01T08:46:19.937Z,85.10
2017-12-01T08:47:20.023Z,89.20
2017-12-01T08:48:19.964Z,83.70
2017-12-01T08:49:20.035Z,88.50
2017-12-01T08:50:19.993Z,90.80
2017-12-01T08:51:20.122Z,84.30
2017-12-01T08:52:20.023Z,89.70
2017-12-01T08:53:20.036Z,81.00
2017-12-01T08:54:20.136Z,84.70
2017-12-01T08:55:20.064Z,84.30
2017-12-01T08:56:20.248Z,83.10
2017-12-01T08:57:20.094Z,88.30
2017-12-01T08:58:20.187Z,83.00
2017-12-01T08:59:20.129Z,84.90
2017-12-01T09:00:20.302Z,84.90
2017-12-01T09:01:20.155Z,83.00
2017-12-01T09:02:20.277Z,81.90
2017-12-01T09:03:20.190Z,84.60
2017-12-01T09:04:20.503Z,81.60
2017-12-01T09:05:20.321Z,84.00
2017-12-01T09:06:20.228Z,82.20
2017-12-01T09:07:20.254Z,85.20
2017-12-01T09:08:20.446Z,85.40
2017-12-01T09:09:20.274Z,85.20
2017-12-01T09:10:20.293Z,80.70
2017-12-01T09:11:20.308Z,81.80
2017-12-01T09:12:20.327Z,85.50
2017-12-01T09:13:20.333Z,83.40
2017-12-01T09:14:20.434Z,81.80
2017-12-01T09:15:20.367Z,81.70
2017-12-01T09:16:20.480Z,78.90
2017-12-01T09:17:20.399Z,76.30
2017-12-01T09:18:20.606Z,84.10
2017-12-01T09:19:20.421Z,80.40
2017-12-01T09:20:20.445Z,86.60
2017-12-01T09:21:20.673Z,80.30
2017-12-01T09:22:20.547Z,80.50
2017-12-01T09:23:20.491Z,75.20
2017-12-01T09:24:20.522Z,83.50
2017-12-01T09:25:20.519Z,76.80
2017-12-01T09:26:20.598Z,82.00
2017-12-01T09:27:20.826Z,76.80
2017-12-01T09:28:20.587Z,80.30
2017-12-01T09:29:20.578Z,83.40
2017-12-01T09:30:20.605Z,85.50
2017-12-01T09:31:20.615Z,83.10
2017-12-01T09:32:20.966Z,81.80
2017-12-01T09:33:20.647Z,80.40
2017-12-01T09:34:20.753Z,77.60
2017-12-01T09:35:20.662Z,81.30
2017-12-01T09:36:20.788Z,79.30
2017-12-01T09:37:20.704Z,80.60
2017-12-01T09:38:20.716Z,76.70
2017-12-01T09:39:20.724Z,80.30
2017-12-01T09:40:20.743Z,79.50
2017-12-01T09:41:20.876Z,77.80
2017-12-01T09:42:20.764Z,70.30
2017-12-01T09:43:20.790Z,74.00
2017-12-01T09:44:20.909Z,72.50
2017-12-01T09:45:20.818Z,76.40
2017-12-01T09:46:20.867Z,76.30
2017-12-01T09:47:20.837Z,75.30
2017-12-01T09:48:20.957Z,73.80
2017-12-01T09:49:20.877Z,72.30
2017-12-01T09:50:21.011Z,74.10
2017-12-01T09:51:20.903Z,81.00
2017-12-01T09:52:21.051Z,79.50
2017-12-01T09:53:20.939Z,88.50
2017-12-01T09:54:20.953Z,85.90
2017-12-01T09:55:21.043Z,88.30
2017-12-01T09:56:20.986Z,89.70
2017-12-01T09:57:21.177Z,92.20
2017-12-01T09:58:21.017Z,83.30
2017-12-01T09:59:21.169Z,84.80
2017-12-01T10:00:21.043Z,89.10
2017-12-01T10:01:21.058Z,94.20
2017-12-01T10:02:21.075Z,90.50
2017-12-01T10:03:21.091Z,90.50
2017-12-01T10:04:21.108Z,89.30
2017-12-01T10:05:21.909Z,90.70
2017-12-01T10:06:21.134Z,86.80
2017-12-01T10:07:21.152Z,92.80
2017-12-01T10:08:21.211Z,89.90
2017-12-01T10:09:21.183Z,100.30
2017-12-01T10:10:21.199Z,93.00
2017-12-01T10:11:21.214Z,98.30
2017-12-01T10:12:21.229Z,100.60
2017-12-01T10:13:21.238Z,96.10
2017-12-01T10:14:21.259Z,90.90
2017-12-01T10:15:21.267Z,94.50
2017-12-01T10:16:21.281Z,93.70
2017-12-01T10:17:21.303Z,95.50
2017-12-01T10:18:21.316Z,99.20
2017-12-01T10:19:21.329Z,103.50
2017-12-01T10:20:21.341Z,95.40
2017-12-01T10:21:21.393Z,93.20
2017-12-01T10:22:21.380Z,96.50
2017-12-01T10:23:21.395Z,96.30
2017-12-01T10:24:21.405Z,92.00
2017-12-01T10:25:21.418Z,95.20
2017-12-01T10:26:21.441Z,95.50
2017-12-01T10:27:21.456Z,92.80
2017-12-01T10:28:21.468Z,88.30
2017-12-01T10:29:21.488Z,88.30
2017-12-01T10:30:21.501Z,92.10
2017-12-01T10:31:21.511Z,90.40
2017-12-01T10:32:21.529Z,87.60
2017-12-01T10:33:21.542Z,88.30
2017-12-01T10:34:21.564Z,87.30
2017-12-01T10:35:21.606Z,89.40
2017-12-01T10:36:21.589Z,83.50
2017-12-01T10:37:21.601Z,80.90
2017-12-01T10:38:21.619Z,80.60
2017-12-01T10:39:21.640Z,81.10
2017-12-01T10:40:21.646Z,81.40
2017-12-01T10:41:21.671Z,80.10
2017-12-01T10:42:21.685Z,80.00
2017-12-01T10:43:21.702Z,85.70
2017-12-01T10:44:21.710Z,85.70
2017-12-01T10:45:21.734Z,81.00
2017-12-01T10:46:21.750Z,83.40
2017-12-01T10:47:21.759Z,84.80
2017-12-01T10:48:21.775Z,84.80
2017-12-01T10:49:21.793Z,83.10
2017-12-01T10:50:21.804Z,81.80
2017-12-01T10:51:21.814Z,85.70
2017-12-01T10:52:21.842Z,85.30
2017-12-01T10:53:21.856Z,84.50
2017-12-01T10:54:21.865Z,90.10
2017-12-01T10:55:21.883Z,81.20
2017-12-01T10:56:21.906Z,82.40
2017-12-01T10:57:21.947Z,79.60
2017-12-01T10:58:21.927Z,84.50
2017-12-01T10:59:21.939Z,77.20
2017-12-01T11:00:21.982Z,76.90
2017-12-01T11:01:21.981Z,81.90
2017-12-01T11:02:21.994Z,82.60
2017-12-01T11:03:22.004Z,78.20
2017-12-01T11:04:22.024Z,78.10
2017-12-01T11:05:22.066Z,79.30
2017-12-01T11:06:22.050Z,77.50
2017-12-01T11:07:22.079Z,82.90
2017-12-01T11:08:22.113Z,77.00
2017-12-01T11:09:22.102Z,79.60
2017-12-01T11:10:22.115Z,79.70
2017-12-01T11:11:22.129Z,77.50
2017-12-01T11:12:22.147Z,72.60
2017-12-01T11:13:22.159Z,79.50
2017-12-01T11:14:22.179Z,84.40
2017-12-01T11:15:22.199Z,82.30
2017-12-01T11:16:22.213Z,79.10
2017-12-01T11:17:22.224Z,78.00
2017-12-01T11:18:22.240Z,74.20
2017-12-01T11:19:22.262Z,66.70
2017-12-01T11:20:22.281Z,70.70
2017-12-01T11:21:22.303Z,73.30
2017-12-01T11:22:22.306Z,70.50
2017-12-01T11:23:22.320Z,69.50
2017-12-01T11:24:22.334Z,72.20
2017-12-01T11:25:22.351Z,75.50
2017-12-01T11:26:22.366Z,77.50
2017-12-01T11:27:22.389Z,72.60
2017-12-01T11:28:22.396Z,72.80
2017-12-01T11:29:22.425Z,72.10
2017-12-01T11:30:22.437Z,70.00
2017-12-01T11:31:22.451Z,70.00
2017-12-01T11:32:22.464Z,71.90
2017-12-01T11:33:22.481Z,77.70
2017-12-01T11:34:22.493Z,77.30
2017-12-01T11:35:22.509Z,70.20
2017-12-01T11:36:22.523Z,67.50
2017-12-01T11:37:22.540Z,67.60
2017-12-01T11:38:22.558Z,72.30
2017-12-01T11:39:22.572Z,66.80
2017-12-01T11:40:22.603Z,66.90
2017-12-01T11:41:22.604Z,67.90
2017-12-01T11:42:22.626Z,69.10
2017-12-01T11:43:22.640Z,66.90
2017-12-01T11:44:22.650Z,68.20
2017-12-01T11:45:22.669Z,63.70
2017-12-01T11:46:22.685Z,64.50
2017-12-01T11:47:22.695Z,67.80
2017-12-01T11:48:22.790Z,68.10
2017-12-01T11:49:22.730Z,64.80
2017-12-01T11:50:22.750Z,66.00
2017-12-01T11:51:22.778Z,70.90
2017-12-01T11:52:22.810Z,66.90
2017-12-01T11:53:22.798Z,63.50
2017-12-01T11:54:22.858Z,69.00
2017-12-01T11:55:22.849Z,67.00
2017-12-01T11:56:22.844Z,68.30
2017-12-01T11:57:22.878Z,67.50
2017-12-01T11:58:22.878Z,69.40
2017-12-01T11:59:22.893Z,69.10
2017-12-01T12:00:22.906Z,71.30
2017-12-01T12:01:22.925Z,65.40
2017-12-01T12:02:22.941Z,72.20
2017-12-01T12:03:22.961Z,72.00
2017-12-01T12:04:22.998Z,68.60
2017-12-01T12:05:23.042Z,72.50
2017-12-01T12:06:23.009Z,64.20
2017-12-01T12:07:23.022Z,64.10
2017-12-01T12:08:23.037Z,62.80
2017-12-01T12:09:23.051Z,60.00
2017-12-01T12:10:23.070Z,55.30
2017-12-01T12:11:23.083Z,60.20
2017-12-01T12:12:23.118Z,59.20
2017-12-01T12:13:23.119Z,59.50
2017-12-01T12:14:23.151Z,55.10
2017-12-01T12:15:23.143Z,58.10
2017-12-01T12:16:23.163Z,56.90
2017-12-01T12:17:23.214Z,57.50
2017-12-01T12:18:23.194Z,55.80
2017-12-01T12:19:23.208Z,54.80
2017-12-01T12:20:23.260Z,56.90
2017-12-01T12:21:23.238Z,54.30
2017-12-01T12:22:23.257Z,58.10
2017-12-01T12:23:23.273Z,55.20
2017-12-01T12:24:23.286Z,57.60
2017-12-01T12:25:23.357Z,55.00
2017-12-01T12:26:23.326Z,55.00
2017-12-01T12:27:23.336Z,54.40
2017-12-01T12:28:23.362Z,56.50
2017-12-01T12:29:23.364Z,53.80
2017-12-01T12:30:23.382Z,56.20
2017-12-01T12:31:23.397Z,55.60
2017-12-01T12:32:23.411Z,52.20
2017-12-01T12:33:23.428Z,55.90
2017-12-01T12:34:23.445Z,57.90
2017-12-01T12:35:23.461Z,57.20
2017-12-01T12:36:23.476Z,62.90
2017-12-01T12:37:23.494Z,59.50
2017-12-01T12:38:23.541Z,60.80
2017-12-01T12:39:23.559Z,66.40
2017-12-01T12:40:23.540Z,63.50
2017-12-01T12:41:23.607Z,60.20
2017-12-01T12:42:23.570Z,59.50
2017-12-01T12:43:23.584Z,60.60
2017-12-01T12:44:23.602Z,59.30
2017-12-01T12:45:23.619Z,61.50
2017-12-01T12:46:23.633Z,60.60
2017-12-01T12:47:23.649Z,57.90
2017-12-01T12:48:23.667Z,61.80